Time;durP1;ratioP1;P1;durP2;ratioP2;P2;SDS_P1;SDS_P2;PMS_P1;PMS_P2;Temp;Humidity;BMP_temperature;BMP_pressure;BME280_temperature;BME280_humidity;BME280_pressure;Samples;Min_cycle;Max_cycle;Signal;HPM_P1;HPM_P2
2021/05/11 00:01:35;;;;;;;9.52;2.30;;;10.70;99.90;;;;;;5083108;28;20201;-77
2021/05/11 00:04:01;;;;;;;6.13;2.88;;;10.60;99.90;;;;;;5066943;28;20336;-77
2021/05/11 00:06:27;;;;;;;3.53;2.47;;;10.60;99.90;;;;;;5100480;28;20223;-77
2021/05/11 00:08:52;;;;;;;4.60;2.90;;;10.60;99.90;;;;;;5103248;28;20200;-78
2021/05/11 00:11:18;;;;;;;4.97;2.88;;;10.60;99.90;;;;;;5105330;28;20211;-77
2021/05/11 00:13:44;;;;;;;5.78;2.60;;;10.50;99.90;;;;;;5086033;28;20268;-78
2021/05/11 00:16:09;;;;;;;4.15;2.58;;;10.50;99.90;;;;;;5083577;28;20316;-78
2021/05/11 00:18:35;;;;;;;6.85;2.65;;;10.30;99.90;;;;;;5101216;28;20195;-78
2021/05/11 00:21:01;;;;;;;4.90;2.50;;;10.30;99.90;;;;;;5085980;28;20228;-77
2021/05/11 00:23:27;;;;;;;5.05;2.42;;;10.20;99.90;;;;;;5102507;28;20202;-75
2021/05/11 00:25:53;;;;;;;2.80;2.30;;;10.20;99.90;;;;;;5103215;28;20215;-76
2021/05/11 00:28:19;;;;;;;235.27;11.77;;;10.20;99.90;;;;;;5104597;28;20199;-76
2021/05/11 00:30:45;;;;;;;26.17;3.40;;;10.10;99.90;;;;;;5103874;28;20203;-75
2021/05/11 00:33:10;;;;;;;531.60;21.67;;;10.00;99.90;;;;;;5100753;28;20605;-76
2021/05/11 00:35:36;;;;;;;11.35;2.85;;;9.90;99.90;;;;;;5099352;28;20533;-76
2021/05/11 00:38:02;;;;;;;6.93;2.38;;;9.70;99.90;;;;;;5102277;28;20223;-77
2021/05/11 00:40:27;;;;;;;5.13;2.83;;;9.70;99.90;;;;;;5100745;28;20967;-76
2021/05/11 00:42:53;;;;;;;134.30;8.48;;;9.70;99.90;;;;;;5104041;28;20191;-76
2021/05/11 00:45:19;;;;;;;4.13;2.50;;;9.60;99.90;;;;;;5102257;28;20222;-76
2021/05/11 00:47:44;;;;;;;184.77;10.10;;;9.50;99.90;;;;;;5083670;28;22363;-76
2021/05/11 00:50:11;;;;;;;261.52;12.20;;;9.40;99.90;;;;;;5100053;28;20196;-76
2021/05/11 00:52:37;;;;;;;7.85;2.50;;;9.30;99.90;;;;;;5102845;28;20813;-75
2021/05/11 00:55:03;;;;;;;549.05;20.13;;;9.20;99.90;;;;;;5099896;28;20203;-76
2021/05/11 00:57:31;;;;;;;4.35;2.67;;;9.10;99.90;;;;;;5086349;28;20286;-76
2021/05/11 00:59:58;;;;;;;2.55;2.17;;;9.00;99.90;;;;;;5102227;28;20219;-76
2021/05/11 01:02:24;;;;;;;177.02;7.57;;;8.90;99.90;;;;;;5111902;22;20236;-74
2021/05/11 01:04:49;;;;;;;3.38;2.00;;;8.80;99.90;;;;;;5091454;28;20203;-73
2021/05/11 01:07:15;;;;;;;3.40;2.30;;;8.80;99.90;;;;;;5080740;28;20188;-72
2021/05/11 01:09:41;;;;;;;4.28;2.30;;;8.70;99.90;;;;;;5077323;28;20208;-74
2021/05/11 01:12:07;;;;;;;4.80;2.38;;;8.70;99.90;;;;;;5077293;28;20258;-73
2021/05/11 01:14:33;;;;;;;2.92;2.30;;;8.70;99.90;;;;;;5075285;28;20274;-71
2021/05/11 01:17:00;;;;;;;2.95;2.38;;;8.70;99.90;;;;;;5078421;28;20636;-72
2021/05/11 01:24:43;;;;;;;4.97;2.88;;;8.70;99.90;;;;;;5075815;28;20208;-72
2021/05/11 01:30:00;;;;;;;4.47;2.97;;;8.60;99.90;;;;;;5074376;28;20256;-72
2021/05/11 01:46:33;;;;;;;3.15;2.40;;;8.10;99.90;;;;;;5079999;28;20783;-75
2021/05/11 01:54:42;;;;;;;72.25;4.22;;;7.80;99.90;;;;;;5081583;28;20212;-73
2021/05/11 02:23:36;;;;;;;2.40;2.03;;;6.80;99.90;;;;;;5060536;28;20210;-72
2021/05/11 02:26:03;;;;;;;4.25;2.33;;;6.80;99.90;;;;;;5059477;28;20750;-71
2021/05/11 02:28:29;;;;;;;2.47;1.90;;;6.70;99.90;;;;;;5058505;28;20255;-71
2021/05/11 02:30:55;;;;;;;88.43;5.40;;;6.60;99.90;;;;;;5062001;28;20197;-72
2021/05/11 02:33:21;;;;;;;3.20;2.00;;;6.60;99.90;;;;;;5053584;28;20267;-75
2021/05/11 02:35:47;;;;;;;12.77;2.60;;;6.50;99.90;;;;;;5057733;28;20269;-71
2021/05/11 02:38:13;;;;;;;5.88;2.30;;;6.50;99.90;;;;;;5059598;28;20217;-73
2021/05/11 02:40:39;;;;;;;5.93;2.42;;;6.60;99.90;;;;;;5060533;28;20208;-72
2021/05/11 02:43:10;;;;;;;6.90;2.30;;;6.60;99.90;;;;;;5057086;28;20208;-71
2021/05/11 02:45:36;;;;;;;3.88;1.90;;;6.70;99.90;;;;;;5056228;28;20280;-72
2021/05/11 02:48:01;;;;;;;23.13;4.15;;;6.80;99.90;;;;;;5057253;28;20292;-74
2021/05/11 02:50:29;;;;;;;4.13;2.78;;;6.90;99.90;;;;;;5044568;28;20220;-72
2021/05/11 02:52:56;;;;;;;103.28;6.63;;;6.90;99.90;;;;;;5061517;28;20686;-72
2021/05/11 02:55:22;;;;;;;13.13;3.08;;;6.90;99.90;;;;;;5059629;28;20293;-72
2021/05/11 02:57:48;;;;;;;107.00;7.57;;;6.90;99.90;;;;;;5056208;28;20239;-72
2021/05/11 03:00:17;;;;;;;12.65;3.20;;;6.90;99.90;;;;;;5058162;28;20194;-72
2021/05/11 03:02:43;;;;;;;13.70;2.80;;;6.90;99.90;;;;;;5074014;28;20674;-72
2021/05/11 03:05:10;;;;;;;183.20;8.23;;;7.00;99.90;;;;;;5071495;28;20200;-71
2021/05/11 03:07:35;;;;;;;232.15;10.35;;;6.90;99.90;;;;;;5098720;28;20195;-72
2021/05/11 03:10:03;;;;;;;4.05;2.22;;;6.90;99.90;;;;;;5098610;28;20198;-72
2021/05/11 03:12:29;;;;;;;9.75;2.28;;;6.90;99.90;;;;;;5101104;28;20231;-73
2021/05/11 03:14:54;;;;;;;10.25;2.70;;;7.00;99.90;;;;;;5094648;28;20257;-71
2021/05/11 03:17:20;;;;;;;3.55;2.03;;;7.00;99.90;;;;;;5084216;28;20205;-73
2021/05/11 03:19:45;;;;;;;3.60;2.50;;;7.10;99.90;;;;;;5099632;28;20196;-71
2021/05/11 03:22:11;;;;;;;2.35;1.55;;;7.10;99.90;;;;;;5097845;28;20200;-74
2021/05/11 03:24:38;;;;;;;5.15;2.38;;;7.20;99.90;;;;;;5095643;28;20253;-72
2021/05/11 03:27:05;;;;;;;2.95;2.10;;;7.20;99.90;;;;;;5097716;28;20597;-71
2021/05/11 03:29:31;;;;;;;4.45;2.20;;;7.30;99.90;;;;;;5094344;28;20196;-74
2021/05/11 03:31:57;;;;;;;4.15;2.30;;;7.30;99.90;;;;;;5083317;28;20191;-74
2021/05/11 03:34:22;;;;;;;4.13;2.58;;;7.30;99.90;;;;;;5098895;28;20196;-74
2021/05/11 03:36:48;;;;;;;10.98;2.88;;;7.40;99.90;;;;;;5101056;28;20461;-72
2021/05/11 03:39:14;;;;;;;5.82;2.40;;;7.50;99.90;;;;;;5099475;28;20287;-72
2021/05/11 03:41:46;;;;;;;3.15;2.30;;;7.60;99.90;;;;;;5081359;28;20195;-72
2021/05/11 03:44:16;;;;;;;70.70;4.35;;;7.70;99.90;;;;;;5095362;28;20824;-74
2021/05/11 03:46:42;;;;;;;193.05;7.68;;;7.90;99.90;;;;;;5079483;28;20240;-72
2021/05/11 03:49:08;;;;;;;7.43;3.17;;;8.00;99.90;;;;;;5095073;28;20192;-75
2021/05/11 03:51:36;;;;;;;11.43;4.28;;;8.10;99.90;;;;;;5095847;28;20211;-74
2021/05/11 03:54:03;;;;;;;11.20;4.22;;;8.30;99.90;;;;;;5095238;28;20216;-74
2021/05/11 03:56:29;;;;;;;22.35;4.78;;;8.40;99.90;;;;;;5096196;28;20261;-74
2021/05/11 03:58:55;;;;;;;28.83;4.18;;;8.40;99.90;;;;;;5092253;28;20208;-72
2021/05/11 04:01:21;;;;;;;78.57;5.10;;;8.50;99.90;;;;;;5079546;28;20562;-73
2021/05/11 04:03:47;;;;;;;108.43;5.85;;;8.50;99.90;;;;;;5079428;28;20273;-74
2021/05/11 04:06:13;;;;;;;7.78;3.70;;;8.50;99.90;;;;;;5075126;28;20659;-71
2021/05/11 04:08:43;;;;;;;6.47;3.85;;;8.60;99.90;;;;;;5071798;28;20200;-71
2021/05/11 04:16:41;;;;;;;29.67;3.63;;;8.90;99.90;;;;;;5081943;28;20211;-71
2021/05/11 04:19:07;;;;;;;5.85;3.38;;;8.90;99.90;;;;;;5084852;28;20283;-74
2021/05/11 04:21:33;;;;;;;6.57;3.47;;;8.90;99.90;;;;;;5074912;28;20210;-72
2021/05/11 04:23:59;;;;;;;153.18;4.88;;;9.00;99.90;;;;;;5077513;28;20192;-72
2021/05/11 04:26:25;;;;;;;37.97;4.75;;;9.00;99.90;;;;;;5058908;28;20925;-72
2021/05/11 04:28:51;;;;;;;34.65;4.07;;;9.00;99.90;;;;;;5058162;28;20193;-73
2021/05/11 04:31:18;;;;;;;40.15;3.40;;;9.00;99.90;;;;;;5058843;28;20299;-72
2021/05/11 04:33:44;;;;;;;10.35;3.17;;;9.00;99.90;;;;;;5058648;28;20664;-72
2021/05/11 04:36:11;;;;;;;110.25;4.47;;;9.00;99.90;;;;;;5074009;28;20207;-71
2021/05/11 04:38:38;;;;;;;72.75;4.07;;;8.90;99.90;;;;;;5078989;28;20306;-73
2021/05/11 04:41:04;;;;;;;43.30;5.40;;;8.90;99.90;;;;;;5082614;28;20283;-72
2021/05/11 04:43:31;;;;;;;9.25;3.72;;;8.90;99.90;;;;;;5081104;28;20635;-74
2021/05/11 04:46:24;;;;;;;42.80;4.18;;;8.90;99.90;;;;;;5076702;28;20218;-72
2021/05/11 04:48:51;;;;;;;6.07;3.70;;;8.90;99.90;;;;;;5077342;28;20314;-73
2021/05/11 04:51:18;;;;;;;50.40;4.80;;;8.90;99.90;;;;;;5085176;28;20557;-72
2021/05/11 04:53:44;;;;;;;13.88;3.50;;;9.00;99.90;;;;;;5081935;28;20237;-72
2021/05/11 04:56:10;;;;;;;23.55;4.18;;;9.00;99.90;;;;;;5074529;28;21655;-72
2021/05/11 04:58:36;;;;;;;17.92;3.63;;;9.10;99.90;;;;;;5080338;28;20272;-74
2021/05/11 05:01:02;;;;;;;15.57;3.75;;;9.20;99.90;;;;;;5081271;28;20577;-72
2021/05/11 05:03:30;;;;;;;22.85;3.58;;;9.30;99.90;;;;;;5081528;28;20224;-72
2021/05/11 05:05:58;;;;;;;19.25;4.20;;;9.40;99.90;;;;;;5056873;28;20208;-73
2021/05/11 05:08:23;;;;;;;4.70;3.05;;;9.40;99.90;;;;;;5075081;28;20199;-75
2021/05/11 05:10:50;;;;;;;6.35;3.55;;;9.40;99.90;;;;;;5075034;28;20251;-73
2021/05/11 05:13:24;;;;;;;7.22;3.60;;;9.60;99.90;;;;;;5073488;28;20209;-73
2021/05/11 05:15:54;;;;;;;5.57;3.03;;;9.60;99.90;;;;;;5055655;28;20545;-73
2021/05/11 05:18:20;;;;;;;8.95;3.08;;;9.70;99.90;;;;;;5071575;28;20246;-74
2021/05/11 05:20:49;;;;;;;10.25;3.78;;;9.70;99.90;;;;;;5080354;28;20643;-74
2021/05/11 05:23:16;;;;;;;7.95;3.40;;;9.80;99.90;;;;;;5064955;28;20211;-72
2021/05/11 05:25:46;;;;;;;7.60;3.25;;;9.80;99.90;;;;;;5064605;28;20199;-74
2021/05/11 05:28:13;;;;;;;10.63;3.60;;;9.90;99.90;;;;;;5066236;28;20236;-73
2021/05/11 05:30:39;;;;;;;11.50;3.53;;;9.90;99.90;;;;;;5063135;28;20215;-74
2021/05/11 05:33:05;;;;;;;8.23;3.40;;;9.90;99.90;;;;;;5081051;28;20243;-73
2021/05/11 05:35:32;;;;;;;9.32;3.95;;;9.90;99.90;;;;;;5082033;28;20535;-72
2021/05/11 05:37:59;;;;;;;9.02;3.50;;;9.80;99.90;;;;;;5068477;28;20196;-72
2021/05/11 05:40:26;;;;;;;13.32;4.00;;;9.80;99.90;;;;;;5079893;28;20199;-74
2021/05/11 05:42:52;;;;;;;16.23;3.78;;;9.80;99.90;;;;;;5084616;28;20199;-73
2021/05/11 05:45:18;;;;;;;9.77;4.22;;;9.80;99.90;;;;;;5056856;28;20708;-73
2021/05/11 05:47:52;;;;;;;11.65;3.90;;;9.70;99.90;;;;;;5079595;28;20274;-73
2021/05/11 05:50:27;;;;;;;10.32;3.80;;;9.70;99.90;;;;;;5059908;28;20223;-73
2021/05/11 05:53:09;;;;;;;9.88;3.95;;;9.80;99.90;;;;;;5061079;28;20254;-74
2021/05/11 05:55:34;;;;;;;9.00;3.42;;;9.80;99.90;;;;;;5077955;28;20669;-73
2021/05/11 05:58:00;;;;;;;11.00;3.70;;;9.80;99.90;;;;;;5079740;28;20200;-73
2021/05/11 06:00:27;;;;;;;10.95;3.10;;;9.90;99.90;;;;;;5058672;28;20196;-74
2021/05/11 06:02:54;;;;;;;8.57;3.63;;;9.80;99.90;;;;;;5083948;28;20233;-72
2021/05/11 06:05:22;;;;;;;8.68;3.78;;;9.80;99.90;;;;;;5092780;28;20203;-72
2021/05/11 06:07:50;;;;;;;10.02;4.35;;;9.90;99.90;;;;;;5094866;28;20196;-75
2021/05/11 06:10:15;;;;;;;12.00;3.80;;;9.90;99.90;;;;;;5075889;28;20200;-72
2021/05/11 06:12:54;;;;;;;9.10;3.63;;;10.00;99.90;;;;;;5079778;28;20216;-73
2021/05/11 06:18:05;;;;;;;10.50;3.70;;;10.20;99.90;;;;;;5100982;28;20703;-73
2021/05/11 06:20:30;;;;;;;10.13;3.55;;;10.20;99.90;;;;;;5100349;28;20685;-74
2021/05/11 06:22:56;;;;;;;9.93;3.67;;;10.30;99.90;;;;;;5102028;28;20200;-72
2021/05/11 06:25:22;;;;;;;7.88;3.42;;;10.40;99.90;;;;;;5096522;28;20285;-76
2021/05/11 06:27:55;;;;;;;9.55;3.53;;;10.60;99.90;;;;;;5103573;28;20227;-75
2021/05/11 06:30:21;;;;;;;17.48;4.07;;;10.70;99.90;;;;;;5097163;28;20823;-75
2021/05/11 06:32:47;;;;;;;10.90;3.88;;;10.80;99.90;;;;;;5095484;28;20256;-74
2021/05/11 06:35:12;;;;;;;9.68;3.05;;;11.00;99.90;;;;;;5098091;28;20677;-73
2021/05/11 06:37:38;;;;;;;12.82;3.47;;;11.00;99.90;;;;;;5098351;28;20597;-76
2021/05/11 06:40:05;;;;;;;13.43;2.67;;;11.00;99.90;;;;;;5100113;28;20204;-72
2021/05/11 06:42:31;;;;;;;8.43;2.47;;;10.90;99.90;;;;;;5073373;28;20289;-73
2021/05/11 06:47:52;;;;;;;7.28;3.00;;;10.70;99.90;;;;;;5101689;28;20211;-73
2021/05/11 06:50:16;;;;;;;9.30;3.00;;;10.70;99.90;;;;;;5097224;28;20215;-74
2021/05/11 06:52:56;;;;;;;10.48;3.35;;;10.70;99.90;;;;;;5099699;28;20211;-75
2021/05/11 06:55:22;;;;;;;9.00;3.30;;;10.80;99.90;;;;;;5102341;28;20190;-73
2021/05/11 06:57:48;;;;;;;9.13;2.78;;;10.80;99.90;;;;;;5101864;28;20665;-73
2021/05/11 07:00:14;;;;;;;11.38;3.08;;;10.90;99.90;;;;;;5080883;28;20580;-73
2021/05/11 07:02:40;;;;;;;15.63;3.25;;;10.90;99.90;;;;;;5082988;28;20223;-72
2021/05/11 07:05:06;;;;;;;6.90;2.58;;;10.80;99.90;;;;;;5091750;28;20203;-74
2021/05/11 07:07:33;;;;;;;8.73;2.97;;;10.90;99.90;;;;;;5081803;28;20207;-75
2021/05/11 07:15:18;;;;;;;9.45;2.97;;;11.00;99.90;;;;;;5099261;28;20669;-73
2021/05/11 07:17:43;;;;;;;13.05;3.10;;;11.00;99.90;;;;;;5101659;28;20187;-73
2021/05/11 07:20:10;;;;;;;11.52;3.03;;;11.00;99.90;;;;;;5085512;28;20219;-73
2021/05/11 07:22:35;;;;;;;17.05;4.15;;;11.00;99.90;;;;;;5080120;28;20195;-74
2021/05/11 07:25:07;;;;;;;9.43;2.95;;;10.90;99.90;;;;;;5077285;28;20670;-73
2021/05/11 07:27:50;;;;;;;10.57;2.92;;;11.00;99.90;;;;;;5100404;28;20217;-74
2021/05/11 07:30:25;;;;;;;11.60;3.05;;;10.90;99.90;;;;;;5102347;28;20450;-72
2021/05/11 07:32:50;;;;;;;10.90;2.95;;;11.00;99.90;;;;;;5097370;28;20282;-73
2021/05/11 07:35:16;;;;;;;13.77;3.17;;;11.00;99.90;;;;;;5097878;28;20191;-73
2021/05/11 07:37:43;;;;;;;10.90;3.13;;;11.00;99.90;;;;;;5096424;28;20689;-75
2021/05/11 07:40:09;;;;;;;9.40;2.88;;;10.90;99.90;;;;;;5078833;28;20187;-73
2021/05/11 07:42:35;;;;;;;14.88;2.92;;;11.00;99.90;;;;;;5069846;28;20199;-74
2021/05/11 07:45:03;;;;;;;13.85;2.90;;;11.00;99.90;;;;;;5076347;28;20191;-75
2021/05/11 08:16:35;;;;;;;12.05;3.05;;;10.90;99.90;;;;;;5093506;28;20342;-73
2021/05/11 08:19:15;;;;;;;8.88;3.08;;;10.90;99.90;;;;;;5073612;28;20192;-74
2021/05/11 08:29:53;;;;;;;10.30;2.85;;;11.20;99.90;;;;;;5096947;28;20312;-73
2021/05/11 08:32:18;;;;;;;10.43;2.72;;;11.20;99.90;;;;;;5082566;28;20334;-73
2021/05/11 08:34:45;;;;;;;10.27;3.10;;;11.30;99.90;;;;;;5093075;28;20248;-73
2021/05/11 08:37:15;;;;;;;8.93;2.70;;;11.10;99.90;;;;;;5077775;28;20199;-73
2021/05/11 08:39:45;;;;;;;13.30;2.80;;;11.20;99.90;;;;;;5075575;28;20234;-73
2021/05/11 08:42:11;;;;;;;12.90;3.55;;;11.20;99.90;;;;;;5081342;28;20187;-73
2021/05/11 08:44:37;;;;;;;7.75;2.72;;;11.20;99.90;;;;;;5079830;28;20200;-75
2021/05/11 08:47:04;;;;;;;9.07;2.75;;;11.10;99.90;;;;;;5095078;28;20191;-74
2021/05/11 08:49:30;;;;;;;8.73;2.97;;;11.00;99.90;;;;;;5094832;28;20199;-76
2021/05/11 08:54:34;;;;;;;10.70;3.17;;;11.00;99.90;;;;;;5103394;28;20247;-74
2021/05/11 09:14:32;;;;;;;9.40;2.90;;;10.50;99.90;;;;;;5096878;28;20239;-74
2021/05/11 09:25:37;;;;;;;9.77;3.25;;;10.90;99.90;;;;;;5094706;28;20201;-74
2021/05/11 09:35:07;;;;;;;7.07;3.38;;;11.20;99.90;;;;;;5096604;28;20211;-73
2021/05/11 09:59:16;;;;;;;7.22;3.00;;;10.80;99.90;;;;;;5093751;28;20209;-74
2021/05/11 10:46:54;;;;;;;11.88;3.10;;;11.00;99.90;;;;;;5079154;28;20227;-73
2021/05/11 10:49:26;;;;;;;14.82;3.90;;;11.00;99.90;;;;;;5054546;28;20200;-75
2021/05/11 10:52:06;;;;;;;8.43;3.20;;;11.00;99.90;;;;;;5055137;28;20199;-73
2021/05/11 10:54:46;;;;;;;10.25;4.05;;;11.00;99.90;;;;;;5057446;28;20307;-73
2021/05/11 10:57:30;;;;;;;9.95;3.13;;;11.00;99.90;;;;;;5076969;28;20625;-74
2021/05/11 11:00:11;;;;;;;7.70;3.30;;;11.10;99.90;;;;;;5075771;28;20207;-74
2021/05/11 11:02:42;;;;;;;13.75;3.50;;;11.10;99.90;;;;;;5073765;28;21274;-75
2021/05/11 11:05:08;;;;;;;8.40;3.20;;;11.10;99.90;;;;;;5077085;28;20222;-75
2021/05/11 11:07:40;;;;;;;7.63;3.42;;;10.90;99.90;;;;;;5073003;28;20248;-75
2021/05/11 11:10:08;;;;;;;8.95;3.85;;;10.90;99.90;;;;;;5077967;28;20816;-72
2021/05/11 11:12:40;;;;;;;10.35;3.58;;;10.80;99.90;;;;;;5057260;28;20276;-74
2021/05/11 11:15:17;;;;;;;7.22;3.10;;;10.90;99.90;;;;;;5072182;28;20226;-75
2021/05/11 11:17:47;;;;;;;9.65;3.28;;;10.90;99.90;;;;;;5068511;28;20200;-75
2021/05/11 11:20:14;;;;;;;6.50;3.00;;;10.90;99.90;;;;;;5076220;28;20201;-75
2021/05/11 11:25:26;;;;;;;8.35;3.20;;;10.90;99.90;;;;;;5074448;28;20195;-75
2021/05/11 11:27:52;;;;;;;6.22;3.25;;;10.90;99.90;;;;;;5062200;28;20204;-75
2021/05/11 11:30:19;;;;;;;6.90;3.10;;;10.90;99.90;;;;;;5076645;28;20642;-75
2021/05/11 11:32:45;;;;;;;7.45;3.05;;;10.90;99.90;;;;;;5060713;28;20955;-73
2021/05/11 11:35:12;;;;;;;10.55;3.25;;;10.90;99.90;;;;;;5057492;28;20196;-75
2021/05/11 11:37:39;;;;;;;8.27;3.28;;;10.90;99.90;;;;;;5058079;28;20229;-74
2021/05/11 11:40:13;;;;;;;7.13;3.10;;;10.90;99.90;;;;;;5077430;28;20223;-74
2021/05/11 11:42:43;;;;;;;7.75;3.00;;;11.00;99.90;;;;;;5074569;28;20238;-73
2021/05/11 11:45:21;;;;;;;7.32;3.10;;;11.10;99.90;;;;;;5046865;28;20207;-74
2021/05/11 11:47:58;;;;;;;11.18;3.10;;;11.10;99.90;;;;;;5068802;28;20222;-72
2021/05/11 11:50:24;;;;;;;5.68;2.80;;;11.00;99.90;;;;;;5039266;28;20689;-74
2021/05/11 11:58:20;;;;;;;7.25;3.10;;;10.90;99.90;;;;;;5077574;28;20900;-74
2021/05/11 12:00:45;;;;;;;7.60;2.70;;;10.90;99.90;;;;;;5056324;28;20195;-75
2021/05/11 12:03:14;;;;;;;4.85;2.88;;;10.90;99.90;;;;;;5071382;28;20227;-74
2021/05/11 12:05:57;;;;;;;8.32;3.08;;;10.90;99.90;;;;;;5078912;28;20715;-75
2021/05/11 12:08:28;;;;;;;9.43;3.00;;;10.90;99.90;;;;;;5092843;28;20677;-74
2021/05/11 12:11:08;;;;;;;8.18;2.97;;;10.90;99.90;;;;;;5095838;28;20748;-73
2021/05/11 12:13:36;;;;;;;8.65;3.17;;;10.90;99.90;;;;;;5091088;28;20606;-73
2021/05/11 12:16:11;;;;;;;7.60;2.78;;;10.90;99.90;;;;;;5078992;28;20192;-73
2021/05/11 12:19:00;;;;;;;8.18;2.78;;;10.80;99.90;;;;;;5069819;28;20187;-75
2021/05/11 12:21:26;;;;;;;7.90;2.80;;;10.80;99.90;;;;;;5094580;28;20249;-74
2021/05/11 12:24:06;;;;;;;6.60;2.95;;;10.70;99.90;;;;;;5082895;28;20195;-75
2021/05/11 12:26:31;;;;;;;11.23;3.25;;;10.60;99.90;;;;;;5098644;28;20198;-72
2021/05/11 12:29:07;;;;;;;9.80;3.20;;;10.60;99.90;;;;;;5078050;28;20200;-73
2021/05/11 12:31:47;;;;;;;7.70;3.10;;;10.50;99.90;;;;;;5101160;28;20206;-76
2021/05/11 12:34:16;;;;;;;7.32;3.28;;;10.50;99.90;;;;;;5082257;28;20282;-74
2021/05/11 12:36:52;;;;;;;8.93;3.20;;;10.50;99.90;;;;;;5083973;28;20639;-73
2021/05/11 12:42:11;;;;;;;6.78;3.22;;;10.60;99.90;;;;;;5098991;28;20194;-74
2021/05/11 12:44:37;;;;;;;9.93;3.50;;;10.60;99.90;;;;;;5099739;28;20612;-73
2021/05/11 12:47:03;;;;;;;8.18;3.28;;;10.60;99.90;;;;;;5096848;28;20241;-72
2021/05/11 12:49:29;;;;;;;5.70;3.28;;;10.60;99.90;;;;;;5094232;28;20215;-73
2021/05/11 12:51:56;;;;;;;9.68;3.15;;;10.60;99.90;;;;;;5101151;28;20664;-73
2021/05/11 13:00:13;;;;;;;8.20;3.45;;;11.20;99.90;;;;;;5102091;28;20288;-73
2021/05/11 13:16:28;;;;;;;6.82;2.70;;;10.80;99.90;;;;;;5082990;28;20207;-76
2021/05/11 13:22:23;;;;;;;6.53;2.80;;;10.80;99.90;;;;;;5021478;28;20205;-75
2021/05/11 13:30:31;;;;;;;6.22;3.65;;;11.20;99.90;;;;;;5037507;28;20197;-77
2021/05/11 13:35:28;;;;;;;7.97;3.70;;;11.20;99.90;;;;;;5083653;28;20188;-73
2021/05/11 13:37:54;;;;;;;6.05;3.30;;;11.20;99.90;;;;;;5062916;28;20200;-74
2021/05/11 13:40:20;;;;;;;5.72;3.40;;;11.10;99.90;;;;;;5080970;28;20192;-73
2021/05/11 13:42:49;;;;;;;6.80;3.17;;;11.10;99.90;;;;;;5072190;28;20204;-74
2021/05/11 13:45:14;;;;;;;7.32;3.55;;;11.10;99.90;;;;;;5084332;28;20855;-74
2021/05/11 13:47:56;;;;;;;6.65;2.95;;;11.00;99.90;;;;;;5081089;28;20215;-75
2021/05/11 13:50:27;;;;;;;5.45;3.08;;;10.90;99.90;;;;;;5080205;28;20662;-73
2021/05/11 13:52:53;;;;;;;10.18;3.22;;;10.90;99.90;;;;;;5081371;28;20581;-74
2021/05/11 13:55:25;;;;;;;5.53;2.88;;;10.90;99.90;;;;;;5059068;28;20598;-76
2021/05/11 14:03:39;;;;;;;7.47;3.00;;;10.80;99.90;;;;;;5032639;28;20240;-73
2021/05/11 14:06:05;;;;;;;7.57;3.40;;;10.80;99.90;;;;;;5074249;28;20219;-75
2021/05/11 14:08:31;;;;;;;8.07;4.15;;;10.80;99.90;;;;;;5105323;28;20232;-75
2021/05/11 14:10:57;;;;;;;10.93;4.20;;;10.80;99.90;;;;;;5100996;28;20223;-75
2021/05/11 14:13:22;;;;;;;8.43;3.25;;;10.80;99.90;;;;;;5101529;28;20291;-72
2021/05/11 14:15:48;;;;;;;10.02;4.55;;;10.80;99.90;;;;;;5077810;28;20187;-76
2021/05/11 14:18:14;;;;;;;8.18;3.28;;;10.80;99.90;;;;;;5097692;28;20250;-76
2021/05/11 14:20:39;;;;;;;4.85;2.55;;;10.80;99.90;;;;;;5081818;28;20203;-74
2021/05/11 14:23:05;;;;;;;6.88;3.47;;;10.80;99.90;;;;;;5078256;28;20243;-77
2021/05/11 14:25:31;;;;;;;5.60;2.70;;;10.90;99.90;;;;;;5098909;28;20666;-73
2021/05/11 14:27:57;;;;;;;4.10;2.38;;;10.90;99.90;;;;;;5083973;28;20230;-74
2021/05/11 14:30:23;;;;;;;5.25;2.40;;;10.90;99.90;;;;;;5102862;28;20270;-74
2021/05/11 14:32:48;;;;;;;9.05;2.65;;;10.80;99.90;;;;;;5082661;28;20215;-74
2021/05/11 14:35:14;;;;;;;8.00;3.50;;;10.80;99.90;;;;;;5100150;28;20599;-75
2021/05/11 14:37:40;;;;;;;10.15;3.00;;;10.80;99.90;;;;;;5103907;28;20206;-75
2021/05/11 14:40:06;;;;;;;8.00;3.72;;;10.80;99.90;;;;;;5102746;28;20196;-75
2021/05/11 14:42:32;;;;;;;6.07;3.05;;;10.80;99.90;;;;;;5103293;28;22247;-73
2021/05/11 14:44:58;;;;;;;6.00;2.90;;;10.80;99.90;;;;;;5081974;28;20278;-75
2021/05/11 14:47:23;;;;;;;8.70;3.10;;;10.80;99.90;;;;;;5101552;28;20365;-76
2021/05/11 14:49:49;;;;;;;7.68;2.80;;;10.80;99.90;;;;;;5083309;28;20741;-74
2021/05/11 14:52:15;;;;;;;7.40;3.00;;;10.80;99.90;;;;;;5101062;28;20253;-75
2021/05/11 14:54:41;;;;;;;6.90;2.83;;;10.80;99.90;;;;;;5079430;28;20712;-75
2021/05/11 14:57:07;;;;;;;6.45;2.75;;;10.80;99.90;;;;;;5081501;28;20203;-76
2021/05/11 14:59:32;;;;;;;8.35;2.88;;;10.80;99.90;;;;;;5078594;28;20207;-74
2021/05/11 15:01:59;;;;;;;6.78;3.40;;;10.80;99.90;;;;;;5097870;28;20670;-75
2021/05/11 15:04:24;;;;;;;7.30;2.97;;;10.80;99.90;;;;;;5097188;28;20203;-75
2021/05/11 15:06:52;;;;;;;7.07;2.60;;;10.80;99.90;;;;;;5104832;28;20218;-73
2021/05/11 15:09:18;;;;;;;6.43;2.88;;;10.80;99.90;;;;;;5103246;28;20199;-75
2021/05/11 15:11:44;;;;;;;6.50;2.70;;;10.80;99.90;;;;;;5101281;28;20270;-73
2021/05/11 15:14:09;;;;;;;4.53;2.50;;;10.80;99.90;;;;;;5084967;28;20207;-74
2021/05/11 15:16:38;;;;;;;12.10;3.20;;;10.90;99.90;;;;;;5080658;28;20274;-77
2021/05/11 15:19:05;;;;;;;10.05;3.70;;;10.90;99.90;;;;;;5102669;28;20221;-74
2021/05/11 15:21:32;;;;;;;10.35;3.60;;;10.90;99.90;;;;;;5092400;28;20268;-75
2021/05/11 15:23:59;;;;;;;7.28;3.00;;;10.90;99.90;;;;;;5095839;28;20200;-75
2021/05/11 15:26:30;;;;;;;7.25;3.78;;;10.80;99.90;;;;;;5099031;28;20518;-74
2021/05/11 15:28:56;;;;;;;7.97;3.47;;;10.80;99.90;;;;;;5074619;28;20617;-75
2021/05/11 15:31:22;;;;;;;7.10;3.10;;;10.70;99.90;;;;;;5089257;28;20202;-75
2021/05/11 15:33:48;;;;;;;11.07;3.45;;;10.60;99.90;;;;;;5094244;28;20953;-76
2021/05/11 15:36:14;;;;;;;12.30;2.95;;;10.60;99.90;;;;;;5091861;28;20202;-72
2021/05/11 15:38:40;;;;;;;5.53;2.80;;;10.50;99.90;;;;;;5090936;28;20203;-74
2021/05/11 15:41:06;;;;;;;9.93;3.05;;;10.50;99.90;;;;;;5091243;28;20199;-73
2021/05/11 15:43:31;;;;;;;6.70;2.80;;;10.50;99.90;;;;;;5095517;28;20199;-74
2021/05/11 15:45:57;;;;;;;7.07;2.80;;;10.40;99.90;;;;;;5093203;28;20196;-74
2021/05/11 15:48:27;;;;;;;4.90;2.55;;;10.40;99.90;;;;;;5098947;28;20779;-73
2021/05/11 15:50:54;;;;;;;4.93;2.95;;;10.40;99.90;;;;;;5093982;28;20216;-72
2021/05/11 15:53:20;;;;;;;7.60;2.80;;;10.40;99.90;;;;;;5092052;28;20210;-75
2021/05/11 15:55:47;;;;;;;9.00;2.83;;;10.40;99.90;;;;;;5092068;28;20200;-75
2021/05/11 15:58:16;;;;;;;13.10;3.20;;;10.40;99.90;;;;;;5087650;28;20299;-75
2021/05/11 16:00:43;;;;;;;10.75;2.85;;;10.40;99.90;;;;;;5068738;28;20195;-73
2021/05/11 16:03:09;;;;;;;6.07;2.55;;;10.40;99.90;;;;;;5087474;28;20579;-75
2021/05/11 16:05:37;;;;;;;8.45;2.47;;;10.40;99.90;;;;;;5084313;28;20270;-74
2021/05/11 16:08:04;;;;;;;5.90;3.05;;;10.40;99.90;;;;;;5089699;28;20203;-74
2021/05/11 16:10:29;;;;;;;8.52;3.00;;;10.40;99.90;;;;;;5075003;28;20187;-72
2021/05/11 16:12:56;;;;;;;8.25;3.42;;;10.40;99.90;;;;;;5090149;28;20800;-75
2021/05/11 16:15:22;;;;;;;6.65;2.92;;;10.40;99.90;;;;;;5072351;28;20196;-77
2021/05/11 16:17:49;;;;;;;4.80;2.97;;;10.40;99.90;;;;;;5078211;28;20200;-75
2021/05/11 16:20:15;;;;;;;7.28;3.10;;;10.30;99.90;;;;;;5073367;28;20195;-73
2021/05/11 16:22:42;;;;;;;7.72;2.95;;;10.30;99.90;;;;;;5075376;28;20257;-75
2021/05/11 16:25:10;;;;;;;4.78;2.53;;;10.30;99.90;;;;;;5094412;28;20200;-75
2021/05/11 16:27:36;;;;;;;8.15;2.50;;;10.30;99.90;;;;;;5094981;28;20199;-74
2021/05/11 16:30:03;;;;;;;4.97;2.58;;;10.30;99.90;;;;;;5090662;28;20299;-74
2021/05/11 16:32:29;;;;;;;11.65;3.20;;;10.20;99.90;;;;;;5091367;28;20287;-75
2021/05/11 16:34:54;;;;;;;9.20;2.70;;;10.20;99.90;;;;;;5092123;28;20196;-73
2021/05/11 16:37:20;;;;;;;4.60;2.45;;;10.30;99.90;;;;;;5093196;28;20195;-74
2021/05/11 16:39:46;;;;;;;6.00;2.58;;;10.30;99.90;;;;;;5088515;28;20704;-77
2021/05/11 16:42:12;;;;;;;4.82;2.45;;;10.30;99.90;;;;;;5092826;28;20191;-75
2021/05/11 16:44:38;;;;;;;5.72;2.53;;;10.20;99.90;;;;;;5078512;28;20199;-74
2021/05/11 16:47:04;;;;;;;5.90;2.50;;;10.20;99.90;;;;;;5074873;28;20506;-75
2021/05/11 16:49:30;;;;;;;5.00;2.80;;;10.30;99.90;;;;;;5074566;28;20261;-75
2021/05/11 16:51:57;;;;;;;10.68;2.65;;;10.30;99.90;;;;;;5089274;28;20264;-75
2021/05/11 16:54:23;;;;;;;6.22;2.35;;;10.30;99.90;;;;;;5085754;28;20207;-76
2021/05/11 16:56:52;;;;;;;5.68;2.30;;;10.20;99.90;;;;;;5094654;28;20192;-74
2021/05/11 16:59:19;;;;;;;6.55;2.33;;;10.20;99.90;;;;;;5086852;28;20903;-73
2021/05/11 17:01:45;;;;;;;10.13;2.17;;;10.20;99.90;;;;;;5097286;28;20198;-76
2021/05/11 17:04:11;;;;;;;4.85;2.28;;;10.20;99.90;;;;;;5071107;28;20240;-75
2021/05/11 17:06:37;;;;;;;6.68;2.65;;;10.20;99.90;;;;;;5071498;28;20200;-73